sensor_id;sensor_type;location;lat;lon;timestamp;P1;durP1;ratioP1;P2;durP2;ratioP2
15454;SDS011;21057;51.024;7.540;2023-03-31T00:01:05;23.33;;;21.87;;
15454;SDS011;21057;51.024;7.540;2023-03-31T00:03:33;24.10;;;22.70;;
15454;SDS011;21057;51.024;7.540;2023-03-31T00:06:03;24.00;;;22.47;;
15454;SDS011;21057;51.024;7.540;2023-03-31T00:08:30;23.30;;;21.90;;
15454;SDS011;21057;51.024;7.540;2023-03-31T00:11:00;23.63;;;22.33;;
15454;SDS011;21057;51.024;7.540;2023-03-31T00:13:29;24.77;;;23.07;;
15454;SDS011;21057;51.024;7.540;2023-03-31T00:15:57;24.37;;;22.53;;
15454;SDS011;21057;51.024;7.540;2023-03-31T00:18:25;24.37;;;22.97;;
15454;SDS011;21057;51.024;7.540;2023-03-31T00:21:06;24.37;;;22.83;;
15454;SDS011;21057;51.024;7.540;2023-03-31T00:23:38;23.87;;;22.20;;
15454;SDS011;21057;51.024;7.540;2023-03-31T00:26:05;23.70;;;22.30;;
15454;SDS011;21057;51.024;7.540;2023-03-31T00:28:38;23.37;;;21.93;;
15454;SDS011;21057;51.024;7.540;2023-03-31T00:31:05;23.90;;;22.30;;
15454;SDS011;21057;51.024;7.540;2023-03-31T00:33:32;24.10;;;22.57;;
15454;SDS011;21057;51.024;7.540;2023-03-31T00:35:59;24.37;;;22.87;;
15454;SDS011;21057;51.024;7.540;2023-03-31T00:38:32;24.80;;;23.40;;
15454;SDS011;21057;51.024;7.540;2023-03-31T00:41:00;23.97;;;22.63;;
15454;SDS011;21057;51.024;7.540;2023-03-31T00:43:28;26.40;;;24.77;;
15454;SDS011;21057;51.024;7.540;2023-03-31T00:45:59;26.87;;;25.20;;
15454;SDS011;21057;51.024;7.540;2023-03-31T00:48:32;26.90;;;25.10;;
15454;SDS011;21057;51.024;7.540;2023-03-31T00:51:02;25.97;;;24.47;;
15454;SDS011;21057;51.024;7.540;2023-03-31T00:53:32;26.93;;;25.00;;
15454;SDS011;21057;51.024;7.540;2023-03-31T00:56:05;28.27;;;26.23;;
15454;SDS011;21057;51.024;7.540;2023-03-31T00:58:36;26.93;;;25.23;;
15454;SDS011;21057;51.024;7.540;2023-03-31T01:01:08;28.20;;;26.50;;
15454;SDS011;21057;51.024;7.540;2023-03-31T01:03:38;28.17;;;26.47;;
15454;SDS011;21057;51.024;7.540;2023-03-31T01:06:06;29.40;;;27.60;;
15454;SDS011;21057;51.024;7.540;2023-03-31T01:08:38;28.97;;;27.20;;
15454;SDS011;21057;51.024;7.540;2023-03-31T01:11:08;27.73;;;26.13;;
15454;SDS011;21057;51.024;7.540;2023-03-31T01:13:37;28.57;;;26.77;;
15454;SDS011;21057;51.024;7.540;2023-03-31T01:16:06;28.07;;;26.47;;
15454;SDS011;21057;51.024;7.540;2023-03-31T01:18:33;28.13;;;26.33;;
15454;SDS011;21057;51.024;7.540;2023-03-31T01:21:11;27.33;;;25.83;;
15454;SDS011;21057;51.024;7.540;2023-03-31T01:30:02;28.63;;;26.77;;
15454;SDS011;21057;51.024;7.540;2023-03-31T01:32:57;28.30;;;26.70;;
15454;SDS011;21057;51.024;7.540;2023-03-31T01:39:13;27.97;;;26.27;;
15454;SDS011;21057;51.024;7.540;2023-03-31T01:42:20;28.20;;;26.50;;
15454;SDS011;21057;51.024;7.540;2023-03-31T01:44:56;28.43;;;26.63;;
15454;SDS011;21057;51.024;7.540;2023-03-31T01:47:31;29.27;;;27.47;;
15454;SDS011;21057;51.024;7.540;2023-03-31T01:50:05;29.47;;;27.33;;
15454;SDS011;21057;51.024;7.540;2023-03-31T01:52:37;29.33;;;27.00;;
15454;SDS011;21057;51.024;7.540;2023-03-31T01:55:11;28.67;;;27.07;;
15454;SDS011;21057;51.024;7.540;2023-03-31T01:57:46;28.77;;;27.17;;
15454;SDS011;21057;51.024;7.540;2023-03-31T02:00:16;30.23;;;28.43;;
15454;SDS011;21057;51.024;7.540;2023-03-31T02:02:50;29.73;;;28.03;;
15454;SDS011;21057;51.024;7.540;2023-03-31T02:05:22;28.50;;;26.63;;
15454;SDS011;21057;51.024;7.540;2023-03-31T02:07:51;29.80;;;27.77;;
15454;SDS011;21057;51.024;7.540;2023-03-31T02:10:36;28.00;;;26.40;;
15454;SDS011;21057;51.024;7.540;2023-03-31T02:13:05;29.20;;;27.43;;
15454;SDS011;21057;51.024;7.540;2023-03-31T02:15:40;28.60;;;26.77;;
15454;SDS011;21057;51.024;7.540;2023-03-31T02:18:12;27.80;;;26.20;;
15454;SDS011;21057;51.024;7.540;2023-03-31T02:20:43;28.93;;;27.13;;
15454;SDS011;21057;51.024;7.540;2023-03-31T02:23:14;28.27;;;26.23;;
15454;SDS011;21057;51.024;7.540;2023-03-31T02:25:46;29.00;;;26.87;;
15454;SDS011;21057;51.024;7.540;2023-03-31T02:28:19;27.90;;;26.30;;
15454;SDS011;21057;51.024;7.540;2023-03-31T02:30:50;28.93;;;27.23;;
15454;SDS011;21057;51.024;7.540;2023-03-31T02:33:26;29.10;;;27.23;;
15454;SDS011;21057;51.024;7.540;2023-03-31T02:35:53;29.03;;;27.10;;
15454;SDS011;21057;51.024;7.540;2023-03-31T02:38:20;27.87;;;26.10;;
15454;SDS011;21057;51.024;7.540;2023-03-31T02:40:47;27.20;;;25.50;;
15454;SDS011;21057;51.024;7.540;2023-03-31T02:43:14;27.30;;;25.37;;
15454;SDS011;21057;51.024;7.540;2023-03-31T02:45:44;27.50;;;25.60;;
15454;SDS011;21057;51.024;7.540;2023-03-31T02:48:13;28.00;;;26.30;;
15454;SDS011;21057;51.024;7.540;2023-03-31T02:54:09;29.77;;;27.53;;
15454;SDS011;21057;51.024;7.540;2023-03-31T02:57:00;28.43;;;26.70;;
15454;SDS011;21057;51.024;7.540;2023-03-31T02:59:41;27.97;;;26.13;;
15454;SDS011;21057;51.024;7.540;2023-03-31T03:05:26;28.50;;;26.60;;
15454;SDS011;21057;51.024;7.540;2023-03-31T03:08:18;29.23;;;27.17;;
15454;SDS011;21057;51.024;7.540;2023-03-31T03:14:16;28.93;;;26.80;;
15454;SDS011;21057;51.024;7.540;2023-03-31T03:16:51;27.90;;;25.97;;
15454;SDS011;21057;51.024;7.540;2023-03-31T03:19:24;28.03;;;26.00;;
15454;SDS011;21057;51.024;7.540;2023-03-31T03:21:51;27.70;;;26.10;;
15454;SDS011;21057;51.024;7.540;2023-03-31T03:24:18;27.90;;;26.20;;
15454;SDS011;21057;51.024;7.540;2023-03-31T03:26:55;30.23;;;28.17;;
15454;SDS011;21057;51.024;7.540;2023-03-31T03:29:22;31.73;;;29.53;;
15454;SDS011;21057;51.024;7.540;2023-03-31T03:31:51;31.50;;;29.70;;
15454;SDS011;21057;51.024;7.540;2023-03-31T03:36:51;32.40;;;30.40;;
15454;SDS011;21057;51.024;7.540;2023-03-31T03:39:18;33.33;;;31.30;;
15454;SDS011;21057;51.024;7.540;2023-03-31T03:41:45;31.40;;;29.30;;
15454;SDS011;21057;51.024;7.540;2023-03-31T03:44:11;31.17;;;29.27;;
15454;SDS011;21057;51.024;7.540;2023-03-31T03:46:38;33.10;;;31.17;;
15454;SDS011;21057;51.024;7.540;2023-03-31T03:49:05;32.43;;;30.33;;
15454;SDS011;21057;51.024;7.540;2023-03-31T03:51:43;32.33;;;30.10;;
15454;SDS011;21057;51.024;7.540;2023-03-31T03:54:10;31.47;;;29.13;;
15454;SDS011;21057;51.024;7.540;2023-03-31T03:56:44;33.73;;;31.43;;
15454;SDS011;21057;51.024;7.540;2023-03-31T03:59:11;33.53;;;30.90;;
15454;SDS011;21057;51.024;7.540;2023-03-31T04:01:39;33.03;;;30.87;;
15454;SDS011;21057;51.024;7.540;2023-03-31T04:04:11;30.60;;;28.40;;
15454;SDS011;21057;51.024;7.540;2023-03-31T04:06:38;30.07;;;28.17;;
15454;SDS011;21057;51.024;7.540;2023-03-31T04:09:06;31.03;;;28.50;;
15454;SDS011;21057;51.024;7.540;2023-03-31T04:11:46;30.27;;;28.50;;
15454;SDS011;21057;51.024;7.540;2023-03-31T04:14:13;30.37;;;28.40;;
15454;SDS011;21057;51.024;7.540;2023-03-31T04:16:39;34.03;;;31.70;;
15454;SDS011;21057;51.024;7.540;2023-03-31T04:19:07;34.50;;;32.37;;
15454;SDS011;21057;51.024;7.540;2023-03-31T04:21:36;34.27;;;32.23;;
15454;SDS011;21057;51.024;7.540;2023-03-31T04:24:10;32.53;;;30.40;;
15454;SDS011;21057;51.024;7.540;2023-03-31T04:26:40;34.63;;;32.23;;
15454;SDS011;21057;51.024;7.540;2023-03-31T04:29:08;33.47;;;31.07;;
15454;SDS011;21057;51.024;7.540;2023-03-31T04:31:38;35.70;;;32.70;;
15454;SDS011;21057;51.024;7.540;2023-03-31T04:34:07;33.67;;;31.57;;
15454;SDS011;21057;51.024;7.540;2023-03-31T04:36:37;34.57;;;32.17;;
15454;SDS011;21057;51.024;7.540;2023-03-31T04:39:08;35.70;;;33.67;;
15454;SDS011;21057;51.024;7.540;2023-03-31T04:41:36;34.83;;;32.83;;
15454;SDS011;21057;51.024;7.540;2023-03-31T04:44:09;35.30;;;33.03;;
15454;SDS011;21057;51.024;7.540;2023-03-31T04:46:36;36.20;;;33.00;;
15454;SDS011;21057;51.024;7.540;2023-03-31T04:49:04;33.50;;;31.40;;
15454;SDS011;21057;51.024;7.540;2023-03-31T04:51:31;33.67;;;31.77;;
15454;SDS011;21057;51.024;7.540;2023-03-31T04:53:58;34.70;;;32.60;;
15454;SDS011;21057;51.024;7.540;2023-03-31T04:56:29;35.57;;;33.63;;
15454;SDS011;21057;51.024;7.540;2023-03-31T04:58:56;34.10;;;32.20;;
15454;SDS011;21057;51.024;7.540;2023-03-31T05:01:23;35.87;;;33.43;;
15454;SDS011;21057;51.024;7.540;2023-03-31T05:04:04;33.00;;;30.97;;
15454;SDS011;21057;51.024;7.540;2023-03-31T05:06:31;32.17;;;30.23;;
15454;SDS011;21057;51.024;7.540;2023-03-31T05:08:58;34.97;;;32.67;;
15454;SDS011;21057;51.024;7.540;2023-03-31T05:11:25;35.20;;;33.10;;
15454;SDS011;21057;51.024;7.540;2023-03-31T05:13:54;35.07;;;32.97;;
15454;SDS011;21057;51.024;7.540;2023-03-31T05:16:21;34.20;;;32.10;;
15454;SDS011;21057;51.024;7.540;2023-03-31T05:18:48;36.20;;;34.10;;
15454;SDS011;21057;51.024;7.540;2023-03-31T05:21:16;35.50;;;33.43;;
15454;SDS011;21057;51.024;7.540;2023-03-31T05:23:46;37.07;;;34.47;;
15454;SDS011;21057;51.024;7.540;2023-03-31T05:26:13;34.93;;;32.83;;
15454;SDS011;21057;51.024;7.540;2023-03-31T05:28:49;36.30;;;34.10;;
15454;SDS011;21057;51.024;7.540;2023-03-31T05:31:17;36.47;;;33.90;;
15454;SDS011;21057;51.024;7.540;2023-03-31T05:33:44;36.70;;;34.30;;
15454;SDS011;21057;51.024;7.540;2023-03-31T05:36:11;35.50;;;33.40;;
15454;SDS011;21057;51.024;7.540;2023-03-31T05:38:39;35.33;;;33.20;;
15454;SDS011;21057;51.024;7.540;2023-03-31T05:41:07;34.53;;;32.53;;
15454;SDS011;21057;51.024;7.540;2023-03-31T05:43:37;35.63;;;32.80;;
15454;SDS011;21057;51.024;7.540;2023-03-31T05:46:06;31.77;;;29.67;;
15454;SDS011;21057;51.024;7.540;2023-03-31T05:48:37;33.60;;;31.27;;
15454;SDS011;21057;51.024;7.540;2023-03-31T05:51:04;32.37;;;30.47;;
15454;SDS011;21057;51.024;7.540;2023-03-31T05:53:31;32.93;;;30.80;;
15454;SDS011;21057;51.024;7.540;2023-03-31T05:56:06;31.50;;;29.30;;
15454;SDS011;21057;51.024;7.540;2023-03-31T05:58:34;31.33;;;29.43;;
15454;SDS011;21057;51.024;7.540;2023-03-31T06:01:06;32.17;;;29.70;;
15454;SDS011;21057;51.024;7.540;2023-03-31T06:03:35;32.33;;;30.00;;
15454;SDS011;21057;51.024;7.540;2023-03-31T06:06:04;31.77;;;29.97;;
15454;SDS011;21057;51.024;7.540;2023-03-31T06:08:35;31.20;;;29.40;;
15454;SDS011;21057;51.024;7.540;2023-03-31T06:11:03;29.73;;;27.83;;
15454;SDS011;21057;51.024;7.540;2023-03-31T06:13:31;29.27;;;27.47;;
15454;SDS011;21057;51.024;7.540;2023-03-31T06:16:02;30.60;;;28.80;;
15454;SDS011;21057;51.024;7.540;2023-03-31T06:18:30;32.27;;;30.17;;
15454;SDS011;21057;51.024;7.540;2023-03-31T06:21:06;31.77;;;29.77;;
15454;SDS011;21057;51.024;7.540;2023-03-31T06:23:36;32.87;;;30.63;;
15454;SDS011;21057;51.024;7.540;2023-03-31T06:26:04;32.70;;;30.53;;
15454;SDS011;21057;51.024;7.540;2023-03-31T06:28:33;32.13;;;30.00;;
15454;SDS011;21057;51.024;7.540;2023-03-31T06:31:01;32.10;;;30.20;;
15454;SDS011;21057;51.024;7.540;2023-03-31T06:33:29;32.70;;;30.70;;
15454;SDS011;21057;51.024;7.540;2023-03-31T06:35:56;33.77;;;31.87;;
15454;SDS011;21057;51.024;7.540;2023-03-31T06:38:25;35.77;;;33.20;;
15454;SDS011;21057;51.024;7.540;2023-03-31T06:40:52;34.37;;;32.37;;
15454;SDS011;21057;51.024;7.540;2023-03-31T06:43:20;35.03;;;32.93;;
15454;SDS011;21057;51.024;7.540;2023-03-31T06:45:47;34.03;;;32.03;;
15454;SDS011;21057;51.024;7.540;2023-03-31T06:50:47;34.00;;;31.70;;
15454;SDS011;21057;51.024;7.540;2023-03-31T06:53:14;33.33;;;31.43;;
15454;SDS011;21057;51.024;7.540;2023-03-31T06:55:43;33.70;;;31.50;;
15454;SDS011;21057;51.024;7.540;2023-03-31T06:58:20;32.90;;;30.90;;
15454;SDS011;21057;51.024;7.540;2023-03-31T07:00:49;32.90;;;31.00;;
15454;SDS011;21057;51.024;7.540;2023-03-31T07:03:17;30.93;;;29.13;;
15454;SDS011;21057;51.024;7.540;2023-03-31T07:05:52;31.73;;;29.83;;
15454;SDS011;21057;51.024;7.540;2023-03-31T07:08:27;30.97;;;29.03;;
15454;SDS011;21057;51.024;7.540;2023-03-31T07:10:55;31.90;;;30.10;;
15454;SDS011;21057;51.024;7.540;2023-03-31T07:13:23;32.50;;;30.60;;
15454;SDS011;21057;51.024;7.540;2023-03-31T07:15:51;31.90;;;30.10;;
15454;SDS011;21057;51.024;7.540;2023-03-31T07:18:25;33.53;;;31.53;;
15454;SDS011;21057;51.024;7.540;2023-03-31T07:21:03;32.83;;;30.80;;
15454;SDS011;21057;51.024;7.540;2023-03-31T07:23:43;31.80;;;29.80;;
15454;SDS011;21057;51.024;7.540;2023-03-31T07:26:14;29.30;;;27.60;;
15454;SDS011;21057;51.024;7.540;2023-03-31T07:28:48;30.80;;;28.50;;
15454;SDS011;21057;51.024;7.540;2023-03-31T07:31:17;30.63;;;28.93;;
15454;SDS011;21057;51.024;7.540;2023-03-31T07:33:45;30.87;;;28.93;;
15454;SDS011;21057;51.024;7.540;2023-03-31T07:36:20;31.47;;;29.27;;
15454;SDS011;21057;51.024;7.540;2023-03-31T07:38:47;30.47;;;28.47;;
15454;SDS011;21057;51.024;7.540;2023-03-31T07:41:19;29.20;;;27.30;;
15454;SDS011;21057;51.024;7.540;2023-03-31T07:43:55;27.40;;;25.80;;
15454;SDS011;21057;51.024;7.540;2023-03-31T07:46:22;28.20;;;26.40;;
15454;SDS011;21057;51.024;7.540;2023-03-31T07:49:05;28.50;;;26.80;;
15454;SDS011;21057;51.024;7.540;2023-03-31T07:51:33;28.20;;;26.60;;
15454;SDS011;21057;51.024;7.540;2023-03-31T07:54:00;28.63;;;26.87;;
15454;SDS011;21057;51.024;7.540;2023-03-31T07:56:32;29.00;;;27.20;;
15454;SDS011;21057;51.024;7.540;2023-03-31T07:59:01;29.23;;;27.10;;
15454;SDS011;21057;51.024;7.540;2023-03-31T08:01:29;29.87;;;27.87;;
15454;SDS011;21057;51.024;7.540;2023-03-31T08:03:58;27.53;;;25.93;;
15454;SDS011;21057;51.024;7.540;2023-03-31T08:06:27;29.53;;;27.73;;
15454;SDS011;21057;51.024;7.540;2023-03-31T08:08:54;29.83;;;28.03;;
15454;SDS011;21057;51.024;7.540;2023-03-31T08:11:30;29.33;;;27.53;;
15454;SDS011;21057;51.024;7.540;2023-03-31T08:16:42;30.90;;;28.80;;
15454;SDS011;21057;51.024;7.540;2023-03-31T08:19:09;29.00;;;27.30;;
15454;SDS011;21057;51.024;7.540;2023-03-31T08:21:42;30.87;;;28.70;;
15454;SDS011;21057;51.024;7.540;2023-03-31T08:24:09;31.10;;;29.30;;
15454;SDS011;21057;51.024;7.540;2023-03-31T08:26:42;30.20;;;28.50;;
15454;SDS011;21057;51.024;7.540;2023-03-31T08:29:11;30.40;;;28.60;;
15454;SDS011;21057;51.024;7.540;2023-03-31T08:31:39;29.07;;;27.20;;
15454;SDS011;21057;51.024;7.540;2023-03-31T08:34:08;28.00;;;26.40;;
15454;SDS011;21057;51.024;7.540;2023-03-31T08:36:35;28.80;;;27.10;;
15454;SDS011;21057;51.024;7.540;2023-03-31T08:39:04;29.43;;;27.67;;
15454;SDS011;21057;51.024;7.540;2023-03-31T08:41:43;27.97;;;26.37;;
15454;SDS011;21057;51.024;7.540;2023-03-31T08:44:25;29.37;;;27.67;;
15454;SDS011;21057;51.024;7.540;2023-03-31T08:46:57;28.53;;;26.90;;
15454;SDS011;21057;51.024;7.540;2023-03-31T08:49:29;28.17;;;26.47;;
15454;SDS011;21057;51.024;7.540;2023-03-31T08:52:03;27.83;;;26.13;;
15454;SDS011;21057;51.024;7.540;2023-03-31T08:54:35;27.17;;;25.57;;
15454;SDS011;21057;51.024;7.540;2023-03-31T08:57:11;27.90;;;26.20;;
15454;SDS011;21057;51.024;7.540;2023-03-31T08:59:45;28.37;;;26.77;;
15454;SDS011;21057;51.024;7.540;2023-03-31T09:02:15;27.00;;;25.43;;
15454;SDS011;21057;51.024;7.540;2023-03-31T09:07:49;26.30;;;24.60;;
15454;SDS011;21057;51.024;7.540;2023-03-31T09:10:27;24.53;;;22.97;;
15454;SDS011;21057;51.024;7.540;2023-03-31T09:13:01;25.07;;;23.27;;
15454;SDS011;21057;51.024;7.540;2023-03-31T09:15:38;22.97;;;21.57;;
15454;SDS011;21057;51.024;7.540;2023-03-31T09:18:11;22.80;;;21.30;;
15454;SDS011;21057;51.024;7.540;2023-03-31T09:20:45;23.10;;;21.57;;
15454;SDS011;21057;51.024;7.540;2023-03-31T09:23:18;22.33;;;20.63;;
15454;SDS011;21057;51.024;7.540;2023-03-31T09:25:52;22.77;;;21.27;;
15454;SDS011;21057;51.024;7.540;2023-03-31T09:28:21;24.20;;;22.70;;
15454;SDS011;21057;51.024;7.540;2023-03-31T09:30:58;22.40;;;21.00;;
15454;SDS011;21057;51.024;7.540;2023-03-31T09:33:26;22.47;;;20.87;;
15454;SDS011;21057;51.024;7.540;2023-03-31T09:36:04;23.40;;;21.77;;
15454;SDS011;21057;51.024;7.540;2023-03-31T09:38:45;22.37;;;21.00;;
15454;SDS011;21057;51.024;7.540;2023-03-31T09:43:54;23.00;;;21.33;;
15454;SDS011;21057;51.024;7.540;2023-03-31T09:46:23;22.07;;;20.77;;
15454;SDS011;21057;51.024;7.540;2023-03-31T09:48:57;23.70;;;22.20;;
15454;SDS011;21057;51.024;7.540;2023-03-31T09:51:29;22.23;;;20.93;;
15454;SDS011;21057;51.024;7.540;2023-03-31T09:54:11;23.37;;;21.97;;
15454;SDS011;21057;51.024;7.540;2023-03-31T09:56:45;22.90;;;21.30;;
15454;SDS011;21057;51.024;7.540;2023-03-31T09:59:18;23.03;;;21.23;;
15454;SDS011;21057;51.024;7.540;2023-03-31T10:01:48;22.97;;;21.60;;
15454;SDS011;21057;51.024;7.540;2023-03-31T10:04:18;22.80;;;21.30;;
15454;SDS011;21057;51.024;7.540;2023-03-31T10:06:51;22.80;;;20.90;;
15454;SDS011;21057;51.024;7.540;2023-03-31T10:09:20;21.43;;;20.13;;
15454;SDS011;21057;51.024;7.540;2023-03-31T10:12:01;21.57;;;20.00;;
15454;SDS011;21057;51.024;7.540;2023-03-31T10:14:32;21.63;;;19.80;;
15454;SDS011;21057;51.024;7.540;2023-03-31T10:17:11;21.00;;;19.50;;
15454;SDS011;21057;51.024;7.540;2023-03-31T10:19:48;19.80;;;18.60;;
15454;SDS011;21057;51.024;7.540;2023-03-31T10:22:25;21.60;;;19.97;;
15454;SDS011;21057;51.024;7.540;2023-03-31T10:25:07;21.27;;;19.87;;
15454;SDS011;21057;51.024;7.540;2023-03-31T10:27:37;21.93;;;20.33;;
15454;SDS011;21057;51.024;7.540;2023-03-31T10:30:23;22.13;;;20.60;;
15454;SDS011;21057;51.024;7.540;2023-03-31T10:33:05;22.77;;;21.17;;
15454;SDS011;21057;51.024;7.540;2023-03-31T10:35:35;22.30;;;20.80;;
15454;SDS011;21057;51.024;7.540;2023-03-31T10:38:04;22.70;;;21.30;;
15454;SDS011;21057;51.024;7.540;2023-03-31T10:40:53;22.20;;;20.60;;
15454;SDS011;21057;51.024;7.540;2023-03-31T10:43:24;22.30;;;20.53;;
15454;SDS011;21057;51.024;7.540;2023-03-31T10:45:55;22.40;;;20.60;;
15454;SDS011;21057;51.024;7.540;2023-03-31T10:48:26;21.80;;;20.03;;
15454;SDS011;21057;51.024;7.540;2023-03-31T10:50:54;21.20;;;19.80;;
15454;SDS011;21057;51.024;7.540;2023-03-31T10:53:25;21.40;;;19.80;;
15454;SDS011;21057;51.024;7.540;2023-03-31T10:55:55;21.23;;;19.83;;
15454;SDS011;21057;51.024;7.540;2023-03-31T10:58:39;21.50;;;19.83;;
15454;SDS011;21057;51.024;7.540;2023-03-31T11:01:20;20.87;;;19.47;;
15454;SDS011;21057;51.024;7.540;2023-03-31T11:07:12;23.50;;;21.63;;
15454;SDS011;21057;51.024;7.540;2023-03-31T11:12:33;22.13;;;20.80;;
15454;SDS011;21057;51.024;7.540;2023-03-31T11:17:47;22.90;;;21.00;;
15454;SDS011;21057;51.024;7.540;2023-03-31T11:20:27;22.57;;;20.70;;
15454;SDS011;21057;51.024;7.540;2023-03-31T11:23:05;22.60;;;21.07;;
15454;SDS011;21057;51.024;7.540;2023-03-31T11:25:42;22.67;;;21.00;;
15454;SDS011;21057;51.024;7.540;2023-03-31T11:28:23;23.07;;;20.90;;
15454;SDS011;21057;51.024;7.540;2023-03-31T11:30:58;22.33;;;20.57;;
15454;SDS011;21057;51.024;7.540;2023-03-31T11:36:27;20.93;;;19.50;;
15454;SDS011;21057;51.024;7.540;2023-03-31T11:39:08;21.07;;;19.43;;
15454;SDS011;21057;51.024;7.540;2023-03-31T11:41:49;22.07;;;20.63;;
15454;SDS011;21057;51.024;7.540;2023-03-31T11:44:19;21.20;;;20.00;;
15454;SDS011;21057;51.024;7.540;2023-03-31T11:46:50;21.67;;;20.17;;
15454;SDS011;21057;51.024;7.540;2023-03-31T11:49:21;21.00;;;19.40;;
15454;SDS011;21057;51.024;7.540;2023-03-31T11:51:53;20.40;;;19.00;;
15454;SDS011;21057;51.024;7.540;2023-03-31T11:54:23;20.50;;;19.27;;
15454;SDS011;21057;51.024;7.540;2023-03-31T11:57:05;19.67;;;18.30;;
15454;SDS011;21057;51.024;7.540;2023-03-31T11:59:45;20.37;;;19.17;;
15454;SDS011;21057;51.024;7.540;2023-03-31T12:02:22;20.00;;;18.60;;
15454;SDS011;21057;51.024;7.540;2023-03-31T12:04:57;20.50;;;19.00;;
15454;SDS011;21057;51.024;7.540;2023-03-31T12:07:27;20.27;;;18.87;;
15454;SDS011;21057;51.024;7.540;2023-03-31T12:09:57;19.73;;;18.50;;
15454;SDS011;21057;51.024;7.540;2023-03-31T12:12:30;20.37;;;18.67;;
15454;SDS011;21057;51.024;7.540;2023-03-31T12:15:02;20.00;;;18.60;;
15454;SDS011;21057;51.024;7.540;2023-03-31T12:17:36;20.60;;;18.90;;
15454;SDS011;21057;51.024;7.540;2023-03-31T12:20:10;20.30;;;19.00;;
15454;SDS011;21057;51.024;7.540;2023-03-31T12:22:47;21.23;;;19.70;;
15454;SDS011;21057;51.024;7.540;2023-03-31T12:25:15;21.37;;;19.70;;
15454;SDS011;21057;51.024;7.540;2023-03-31T12:27:47;21.83;;;20.13;;
15454;SDS011;21057;51.024;7.540;2023-03-31T12:30:17;21.70;;;20.30;;
15454;SDS011;21057;51.024;7.540;2023-03-31T12:32:51;21.33;;;19.60;;
15454;SDS011;21057;51.024;7.540;2023-03-31T12:35:21;21.07;;;19.43;;
15454;SDS011;21057;51.024;7.540;2023-03-31T12:37:59;21.00;;;19.50;;
15454;SDS011;21057;51.024;7.540;2023-03-31T12:40:43;21.97;;;20.47;;
15454;SDS011;21057;51.024;7.540;2023-03-31T12:43:23;21.53;;;19.97;;
15454;SDS011;21057;51.024;7.540;2023-03-31T12:46:06;22.43;;;20.80;;
15454;SDS011;21057;51.024;7.540;2023-03-31T12:48:49;21.63;;;19.93;;
15454;SDS011;21057;51.024;7.540;2023-03-31T12:51:30;22.13;;;20.57;;
15454;SDS011;21057;51.024;7.540;2023-03-31T12:54:24;21.30;;;19.80;;
15454;SDS011;21057;51.024;7.540;2023-03-31T12:57:18;22.13;;;20.17;;
15454;SDS011;21057;51.024;7.540;2023-03-31T13:06:00;20.60;;;19.00;;
15454;SDS011;21057;51.024;7.540;2023-03-31T13:11:37;21.43;;;20.03;;
15454;SDS011;21057;51.024;7.540;2023-03-31T13:14:17;21.83;;;20.33;;
15454;SDS011;21057;51.024;7.540;2023-03-31T13:16:48;20.90;;;19.43;;
15454;SDS011;21057;51.024;7.540;2023-03-31T13:19:24;21.00;;;19.70;;
15454;SDS011;21057;51.024;7.540;2023-03-31T13:21:53;21.50;;;20.07;;
15454;SDS011;21057;51.024;7.540;2023-03-31T13:24:31;20.10;;;18.90;;
15454;SDS011;21057;51.024;7.540;2023-03-31T13:27:17;20.00;;;18.50;;
15454;SDS011;21057;51.024;7.540;2023-03-31T13:29:57;19.80;;;18.50;;
15454;SDS011;21057;51.024;7.540;2023-03-31T13:32:28;20.60;;;19.00;;
15454;SDS011;21057;51.024;7.540;2023-03-31T13:34:56;21.57;;;19.30;;
15454;SDS011;21057;51.024;7.540;2023-03-31T13:40:37;20.17;;;18.67;;
15454;SDS011;21057;51.024;7.540;2023-03-31T13:52:30;21.10;;;19.67;;
15454;SDS011;21057;51.024;7.540;2023-03-31T13:55:10;21.70;;;20.30;;
15454;SDS011;21057;51.024;7.540;2023-03-31T14:01:11;23.20;;;21.80;;
15454;SDS011;21057;51.024;7.540;2023-03-31T14:03:53;24.07;;;22.20;;
15454;SDS011;21057;51.024;7.540;2023-03-31T14:06:38;23.23;;;21.73;;
15454;SDS011;21057;51.024;7.540;2023-03-31T14:09:13;23.10;;;21.60;;
15454;SDS011;21057;51.024;7.540;2023-03-31T14:11:54;24.50;;;22.53;;
15454;SDS011;21057;51.024;7.540;2023-03-31T14:14:24;24.30;;;22.70;;
15454;SDS011;21057;51.024;7.540;2023-03-31T14:16:54;25.13;;;23.53;;
15454;SDS011;21057;51.024;7.540;2023-03-31T14:19:32;25.07;;;23.57;;
15454;SDS011;21057;51.024;7.540;2023-03-31T14:22:16;24.33;;;22.60;;
15454;SDS011;21057;51.024;7.540;2023-03-31T14:27:38;24.40;;;22.90;;
15454;SDS011;21057;51.024;7.540;2023-03-31T14:30:17;25.70;;;23.80;;
15454;SDS011;21057;51.024;7.540;2023-03-31T14:33:05;25.17;;;23.47;;
15454;SDS011;21057;51.024;7.540;2023-03-31T14:35:42;26.17;;;24.27;;
15454;SDS011;21057;51.024;7.540;2023-03-31T14:38:20;25.73;;;23.93;;
15454;SDS011;21057;51.024;7.540;2023-03-31T14:43:31;25.03;;;23.43;;
15454;SDS011;21057;51.024;7.540;2023-03-31T14:46:01;25.87;;;24.07;;
15454;SDS011;21057;51.024;7.540;2023-03-31T14:48:39;25.70;;;24.00;;
15454;SDS011;21057;51.024;7.540;2023-03-31T14:51:10;25.00;;;23.50;;
15454;SDS011;21057;51.024;7.540;2023-03-31T14:56:23;25.63;;;23.83;;
15454;SDS011;21057;51.024;7.540;2023-03-31T14:59:01;26.20;;;24.10;;
15454;SDS011;21057;51.024;7.540;2023-03-31T15:01:36;25.40;;;23.70;;
15454;SDS011;21057;51.024;7.540;2023-03-31T15:04:12;25.17;;;23.57;;
15454;SDS011;21057;51.024;7.540;2023-03-31T15:06:54;26.00;;;24.07;;
15454;SDS011;21057;51.024;7.540;2023-03-31T15:09:22;27.43;;;25.33;;
15454;SDS011;21057;51.024;7.540;2023-03-31T15:11:54;26.83;;;24.73;;
15454;SDS011;21057;51.024;7.540;2023-03-31T15:14:26;25.00;;;23.40;;
15454;SDS011;21057;51.024;7.540;2023-03-31T15:22:22;26.93;;;24.90;;
15454;SDS011;21057;51.024;7.540;2023-03-31T15:24:51;27.40;;;25.80;;
15454;SDS011;21057;51.024;7.540;2023-03-31T15:27:20;27.70;;;25.90;;
15454;SDS011;21057;51.024;7.540;2023-03-31T15:32:28;25.17;;;23.67;;
15454;SDS011;21057;51.024;7.540;2023-03-31T15:34:58;24.97;;;23.20;;
15454;SDS011;21057;51.024;7.540;2023-03-31T15:37:32;24.40;;;22.53;;
15454;SDS011;21057;51.024;7.540;2023-03-31T15:40:08;24.57;;;22.67;;
15454;SDS011;21057;51.024;7.540;2023-03-31T15:42:44;25.20;;;23.50;;
15454;SDS011;21057;51.024;7.540;2023-03-31T15:48:20;25.33;;;23.73;;
15454;SDS011;21057;51.024;7.540;2023-03-31T15:50:51;24.13;;;22.53;;
15454;SDS011;21057;51.024;7.540;2023-03-31T15:53:28;24.53;;;22.83;;
15454;SDS011;21057;51.024;7.540;2023-03-31T15:55:57;25.10;;;23.30;;
15454;SDS011;21057;51.024;7.540;2023-03-31T16:01:11;25.30;;;23.30;;
15454;SDS011;21057;51.024;7.540;2023-03-31T16:03:41;23.83;;;22.23;;
15454;SDS011;21057;51.024;7.540;2023-03-31T16:06:19;23.20;;;21.80;;
15454;SDS011;21057;51.024;7.540;2023-03-31T16:08:56;24.03;;;22.53;;
15454;SDS011;21057;51.024;7.540;2023-03-31T16:11:32;23.63;;;22.10;;
15454;SDS011;21057;51.024;7.540;2023-03-31T16:14:05;22.77;;;21.10;;
15454;SDS011;21057;51.024;7.540;2023-03-31T16:16:37;23.40;;;21.90;;
15454;SDS011;21057;51.024;7.540;2023-03-31T16:19:07;23.23;;;21.83;;
15454;SDS011;21057;51.024;7.540;2023-03-31T16:21:37;24.47;;;22.97;;
15454;SDS011;21057;51.024;7.540;2023-03-31T16:24:07;24.40;;;22.67;;